createdAt,value
2023-08-07T00:00:11.428Z,7.38
2023-08-07T00:01:16.071Z,7.37
2023-08-07T00:02:19.079Z,7.36
2023-08-07T00:03:20.603Z,7.36
2023-08-07T00:04:22.168Z,7.35
2023-08-07T00:05:30.026Z,7.33
2023-08-07T00:06:31.621Z,7.32
2023-08-07T00:07:35.775Z,7.33
2023-08-07T00:08:37.275Z,7.34
2023-08-07T00:09:39.151Z,7.33
2023-08-07T00:10:40.808Z,7.32
2023-08-07T00:11:44.436Z,7.34
2023-08-07T00:12:45.988Z,7.32
2023-08-07T00:13:50.442Z,7.32
2023-08-07T00:14:52.275Z,7.33
2023-08-07T00:15:54.100Z,7.31
2023-08-07T00:16:55.730Z,7.31
2023-08-07T00:17:57.479Z,7.30
2023-08-07T00:18:59.390Z,7.29
2023-08-07T00:20:08.382Z,7.28
2023-08-07T00:21:15.779Z,7.28
2023-08-07T00:22:17.405Z,7.25
2023-08-07T00:23:18.921Z,7.25
2023-08-07T00:24:20.465Z,7.24
2023-08-07T00:25:22.019Z,7.23
2023-08-07T00:26:29.784Z,7.22
2023-08-07T00:27:33.263Z,7.21
2023-08-07T00:28:34.827Z,7.18
2023-08-07T00:29:38.921Z,7.19
2023-08-07T00:30:41.018Z,7.18
2023-08-07T00:31:45.724Z,7.16
2023-08-07T00:32:47.518Z,7.17
2023-08-07T00:33:49.173Z,7.16
2023-08-07T00:34:50.713Z,7.14
2023-08-07T00:35:52.305Z,7.13
2023-08-07T00:36:54.242Z,7.13
2023-08-07T00:38:02.315Z,7.13
2023-08-07T00:39:03.886Z,7.12
2023-08-07T00:40:05.478Z,7.12
2023-08-07T00:41:07.067Z,7.10
2023-08-07T00:42:10.955Z,7.09
2023-08-07T00:43:12.483Z,7.10
2023-08-07T00:44:14.073Z,7.10
2023-08-07T00:45:15.651Z,7.09
2023-08-07T00:46:17.262Z,7.08
2023-08-07T00:47:34.551Z,7.07
2023-08-07T00:48:36.205Z,7.06
2023-08-07T00:49:39.282Z,7.06
2023-08-07T00:50:47.300Z,7.07
2023-08-07T00:51:49.467Z,7.06
2023-08-07T00:52:51.497Z,7.05
2023-08-07T00:53:57.150Z,7.05
2023-08-07T00:54:58.777Z,7.05
2023-08-07T00:56:00.408Z,7.05
2023-08-07T00:57:01.904Z,7.05
2023-08-07T00:58:03.463Z,7.04
2023-08-07T00:59:04.990Z,7.05
2023-08-07T01:00:09.609Z,7.05
2023-08-07T01:01:11.147Z,7.05
2023-08-07T01:02:12.852Z,7.04
2023-08-07T01:03:14.566Z,7.05
2023-08-07T01:04:16.358Z,7.05
2023-08-07T01:05:20.824Z,7.04
2023-08-07T01:06:22.412Z,7.04
2023-08-07T01:07:26.074Z,7.02
2023-08-07T01:08:27.612Z,7.01
2023-08-07T01:09:29.385Z,7.00
2023-08-07T01:10:31.032Z,7.00
2023-08-07T01:11:32.537Z,6.99
2023-08-07T01:12:34.148Z,6.99
2023-08-07T01:14:09.068Z,6.98
2023-08-07T01:15:00.992Z,6.99
2023-08-07T01:16:03.122Z,6.97
2023-08-07T01:17:05.109Z,6.96
2023-08-07T01:18:06.831Z,6.96
2023-08-07T01:19:08.414Z,6.96
2023-08-07T01:20:16.106Z,6.94
2023-08-07T01:21:17.647Z,6.94
2023-08-07T01:22:19.126Z,6.95
2023-08-07T01:23:20.802Z,6.95
2023-08-07T01:24:25.666Z,6.94
2023-08-07T01:25:27.279Z,6.94
2023-08-07T01:26:28.852Z,6.93
2023-08-07T01:27:32.760Z,6.94
2023-08-07T01:28:34.713Z,6.94
2023-08-07T01:29:36.382Z,6.92
2023-08-07T01:30:38.008Z,6.93
2023-08-07T01:31:39.639Z,6.91
2023-08-07T01:32:41.301Z,6.91
2023-08-07T01:33:42.970Z,6.90
2023-08-07T01:34:44.758Z,6.88
2023-08-07T01:35:46.402Z,6.90
2023-08-07T01:36:48.071Z,6.90
2023-08-07T01:37:49.544Z,6.89
2023-08-07T01:38:51.232Z,6.89
2023-08-07T01:39:52.780Z,6.88
2023-08-07T01:40:54.255Z,6.88
2023-08-07T01:41:55.751Z,6.87
2023-08-07T01:42:57.302Z,6.85
2023-08-07T01:43:58.828Z,6.84
2023-08-07T01:45:00.316Z,6.84
2023-08-07T01:46:01.889Z,6.84
2023-08-07T01:47:12.896Z,6.82
2023-08-07T01:48:14.623Z,6.81
2023-08-07T01:49:18.918Z,6.81
2023-08-07T01:50:20.667Z,6.80
2023-08-07T01:51:22.205Z,6.79
2023-08-07T01:52:24.140Z,6.79
2023-08-07T01:53:39.024Z,6.78
2023-08-07T01:54:40.836Z,6.77
2023-08-07T01:55:47.648Z,6.76
2023-08-07T01:56:49.217Z,6.74
2023-08-07T01:59:14.923Z,6.72
2023-08-07T02:00:16.401Z,6.70
2023-08-07T02:01:17.916Z,6.72
2023-08-07T02:02:19.642Z,6.71
2023-08-07T02:03:21.554Z,6.70
2023-08-07T02:04:23.492Z,6.67
2023-08-07T02:05:27.871Z,6.65
2023-08-07T02:06:33.601Z,6.64
2023-08-07T02:07:35.293Z,6.63
2023-08-07T02:08:36.985Z,6.61
2023-08-07T02:09:38.791Z,6.60
2023-08-07T02:10:49.468Z,6.59
2023-08-07T02:11:51.020Z,6.59
2023-08-07T02:12:53.580Z,6.59
2023-08-07T02:13:55.438Z,6.58
2023-08-07T02:15:13.685Z,6.56
2023-08-07T02:16:24.736Z,6.55
2023-08-07T02:17:26.398Z,6.55
2023-08-07T02:18:38.693Z,6.55
2023-08-07T02:19:40.254Z,6.54
2023-08-07T02:20:41.807Z,6.54
2023-08-07T02:21:43.418Z,6.54
2023-08-07T02:22:44.981Z,6.51
2023-08-07T02:23:46.522Z,6.50
2023-08-07T02:24:48.202Z,6.48
2023-08-07T02:25:49.766Z,6.48
2023-08-07T02:26:51.540Z,6.46
2023-08-07T02:27:53.149Z,6.47
2023-08-07T02:28:54.767Z,6.46
2023-08-07T02:29:56.381Z,6.44
2023-08-07T02:30:57.939Z,6.43
2023-08-07T02:31:59.590Z,6.43
2023-08-07T02:33:01.198Z,6.41
2023-08-07T02:34:02.789Z,6.40
2023-08-07T02:35:07.481Z,6.39
2023-08-07T02:36:16.452Z,6.36
2023-08-07T02:37:27.115Z,6.34
2023-08-07T02:38:28.625Z,6.32
2023-08-07T02:39:39.227Z,6.29
2023-08-07T02:40:49.948Z,6.28
2023-08-07T02:41:51.499Z,6.27
2023-08-07T02:42:53.072Z,6.26
2023-08-07T02:43:54.659Z,6.25
2023-08-07T02:44:56.538Z,6.26
2023-08-07T02:45:58.370Z,6.26
2023-08-07T02:46:59.917Z,6.25
2023-08-07T02:48:01.597Z,6.25
2023-08-07T02:49:03.529Z,6.25
2023-08-07T02:50:05.200Z,6.25
2023-08-07T02:51:09.397Z,6.24
2023-08-07T02:52:14.221Z,6.23
2023-08-07T02:53:15.710Z,6.22
2023-08-07T02:54:25.958Z,6.20
2023-08-07T02:55:27.631Z,6.21
2023-08-07T02:56:29.259Z,6.20
2023-08-07T02:57:30.813Z,6.20
2023-08-07T02:58:33.591Z,6.20
2023-08-07T02:59:36.758Z,6.21
2023-08-07T03:00:38.396Z,6.20
2023-08-07T03:01:39.976Z,6.21
2023-08-07T03:02:41.766Z,6.20
2023-08-07T03:03:47.665Z,6.21
2023-08-07T03:04:54.469Z,6.20
2023-08-07T03:05:56.266Z,6.19
2023-08-07T03:06:58.341Z,6.18
2023-08-07T03:08:00.091Z,6.18
2023-08-07T03:09:01.644Z,6.19
2023-08-07T03:10:03.185Z,6.18
2023-08-07T03:11:04.745Z,6.18
2023-08-07T03:12:08.182Z,6.19
2023-08-07T03:13:09.842Z,6.17
2023-08-07T03:14:11.507Z,6.18
2023-08-07T03:15:13.012Z,6.18
2023-08-07T03:17:37.439Z,6.16
2023-08-07T03:18:44.415Z,6.14
2023-08-07T03:19:46.081Z,6.14
2023-08-07T03:20:47.906Z,6.13
2023-08-07T03:21:50.837Z,6.11
2023-08-07T03:22:52.558Z,6.11
2023-08-07T03:23:55.266Z,6.11
2023-08-07T03:24:56.884Z,6.09
2023-08-07T03:26:08.553Z,6.10
2023-08-07T03:27:25.431Z,6.09
2023-08-07T03:28:27.135Z,6.07
2023-08-07T03:29:28.982Z,6.06
2023-08-07T03:30:30.819Z,6.06
2023-08-07T03:31:32.367Z,6.07
2023-08-07T03:32:36.624Z,6.06
2023-08-07T03:33:41.673Z,6.06
2023-08-07T03:34:43.241Z,6.07
2023-08-07T03:35:45.013Z,6.06
2023-08-07T03:36:46.523Z,6.04
2023-08-07T03:37:47.983Z,6.04
2023-08-07T03:38:51.216Z,6.04
2023-08-07T03:39:53.237Z,6.02
2023-08-07T03:40:54.898Z,6.01
2023-08-07T03:41:56.642Z,5.99
2023-08-07T03:42:59.831Z,5.99
2023-08-07T03:44:01.469Z,5.98
2023-08-07T03:45:03.132Z,5.97
2023-08-07T03:46:04.695Z,5.95
2023-08-07T03:47:08.958Z,5.95
2023-08-07T03:48:10.644Z,5.95
2023-08-07T03:49:13.938Z,5.95
2023-08-07T03:50:18.401Z,5.93
2023-08-07T03:51:20.018Z,5.92
2023-08-07T03:52:21.714Z,5.90
2023-08-07T03:53:23.248Z,5.90
2023-08-07T03:54:24.932Z,5.91
2023-08-07T03:55:31.600Z,5.89
2023-08-07T03:56:33.081Z,5.90
2023-08-07T03:57:34.606Z,5.90
2023-08-07T03:58:36.401Z,5.88
2023-08-07T03:59:37.917Z,5.88
2023-08-07T04:00:40.670Z,5.89
2023-08-07T04:01:42.481Z,5.88
2023-08-07T04:02:44.430Z,5.88
2023-08-07T04:03:45.984Z,5.88
2023-08-07T04:04:55.173Z,5.88
2023-08-07T04:05:56.774Z,5.89
2023-08-07T04:06:58.439Z,5.89
2023-08-07T04:08:00.128Z,5.89
2023-08-07T04:09:01.843Z,5.90
2023-08-07T04:10:03.534Z,5.89
2023-08-07T04:11:07.113Z,5.89
2023-08-07T04:12:08.601Z,5.89
2023-08-07T04:13:10.285Z,5.89
2023-08-07T04:14:11.791Z,5.90
2023-08-07T04:15:14.497Z,5.91
2023-08-07T04:16:16.181Z,5.92
2023-08-07T04:17:17.870Z,5.90
2023-08-07T04:18:19.566Z,5.89
2023-08-07T04:19:21.174Z,5.90
2023-08-07T04:20:22.781Z,5.89
2023-08-07T04:21:24.591Z,5.91
2023-08-07T04:22:26.088Z,5.92
2023-08-07T04:23:27.655Z,5.91
2023-08-07T04:24:29.137Z,5.91
2023-08-07T04:25:30.705Z,5.90
2023-08-07T04:26:32.317Z,5.91
2023-08-07T04:27:35.587Z,5.92
2023-08-07T04:28:37.089Z,5.92
2023-08-07T04:29:38.577Z,5.92
2023-08-07T04:30:40.343Z,5.92
2023-08-07T04:31:44.221Z,5.91
2023-08-07T04:32:48.639Z,5.91
2023-08-07T04:33:50.237Z,5.89
2023-08-07T04:34:51.809Z,5.89
2023-08-07T04:35:53.619Z,5.89
2023-08-07T04:36:55.671Z,5.89
2023-08-07T04:37:57.594Z,5.91
2023-08-07T04:39:05.132Z,5.92
2023-08-07T04:40:06.894Z,5.94
2023-08-07T04:41:08.630Z,5.94
2023-08-07T04:42:10.156Z,5.96
2023-08-07T04:43:11.928Z,5.95
2023-08-07T04:44:16.529Z,5.95
2023-08-07T04:45:18.072Z,5.95
2023-08-07T04:46:20.285Z,5.94
2023-08-07T04:47:22.389Z,5.95
2023-08-07T04:48:26.573Z,5.94
2023-08-07T04:49:28.117Z,5.95
2023-08-07T04:50:29.692Z,5.93
2023-08-07T04:51:34.064Z,5.93
2023-08-07T04:52:43.353Z,5.93
2023-08-07T04:53:48.096Z,5.92
2023-08-07T04:54:55.832Z,5.90
2023-08-07T04:56:06.116Z,5.91
2023-08-07T04:57:07.671Z,5.92
2023-08-07T04:58:09.262Z,5.91
2023-08-07T04:59:10.732Z,5.92
2023-08-07T05:00:12.429Z,5.93
2023-08-07T05:01:16.163Z,5.93
2023-08-07T05:02:17.943Z,5.91
2023-08-07T05:03:25.479Z,5.92
2023-08-07T05:04:27.129Z,5.90
2023-08-07T05:05:28.897Z,5.91
2023-08-07T05:06:30.509Z,5.91
2023-08-07T05:07:32.196Z,5.90
2023-08-07T05:08:33.702Z,5.92
2023-08-07T05:09:35.307Z,5.91
2023-08-07T05:10:36.894Z,5.91
2023-08-07T05:11:38.488Z,5.90
2023-08-07T05:12:40.307Z,5.89
2023-08-07T05:13:41.849Z,5.89
2023-08-07T05:14:43.313Z,5.89
2023-08-07T05:15:45.049Z,5.90
2023-08-07T05:16:46.563Z,5.90
2023-08-07T05:17:50.982Z,5.88
2023-08-07T05:18:52.764Z,5.88
2023-08-07T05:19:58.712Z,5.87
2023-08-07T05:21:00.450Z,5.86
2023-08-07T05:22:02.194Z,5.87
2023-08-07T05:23:03.736Z,5.88
2023-08-07T05:24:05.278Z,5.88
2023-08-07T05:25:06.820Z,5.89
2023-08-07T05:26:11.269Z,5.89
2023-08-07T05:27:14.757Z,5.90
2023-08-07T05:28:16.232Z,5.89
2023-08-07T05:29:26.763Z,5.91
2023-08-07T05:30:28.773Z,5.90
2023-08-07T05:31:30.350Z,5.91
2023-08-07T05:32:34.745Z,5.90
2023-08-07T05:33:36.341Z,5.89
2023-08-07T05:34:37.886Z,5.89
2023-08-07T05:35:39.663Z,5.90
2023-08-07T05:36:41.501Z,5.89
2023-08-07T05:37:42.964Z,5.91
2023-08-07T05:38:44.478Z,5.91
2023-08-07T05:39:46.370Z,5.90
2023-08-07T05:40:47.896Z,5.90
2023-08-07T05:41:49.361Z,5.89
2023-08-07T05:42:50.965Z,5.89
2023-08-07T05:43:52.529Z,5.87
2023-08-07T05:44:55.830Z,5.87
2023-08-07T05:46:03.485Z,5.87
2023-08-07T05:47:08.196Z,5.88
2023-08-07T05:48:16.113Z,5.89
2023-08-07T05:49:20.405Z,5.89
2023-08-07T05:50:25.137Z,5.90
2023-08-07T05:51:29.233Z,5.93
2023-08-07T05:52:33.959Z,5.94
2023-08-07T05:53:35.496Z,5.93
2023-08-07T05:54:37.329Z,5.95
2023-08-07T05:57:08.528Z,5.94
2023-08-07T05:58:16.102Z,5.93
2023-08-07T05:59:17.609Z,5.93
2023-08-07T06:01:43.403Z,5.93
2023-08-07T06:02:57.109Z,5.93
2023-08-07T06:04:08.104Z,5.94
2023-08-07T06:05:09.776Z,5.94
2023-08-07T06:06:11.350Z,5.94
2023-08-07T06:07:18.754Z,5.94
2023-08-07T06:08:20.584Z,5.94
2023-08-07T06:09:22.172Z,5.94
2023-08-07T06:10:23.724Z,5.93
2023-08-07T06:11:28.243Z,5.93
2023-08-07T06:12:29.885Z,5.91
2023-08-07T06:13:36.468Z,5.93
2023-08-07T06:14:38.840Z,5.92
2023-08-07T06:15:40.646Z,5.92
2023-08-07T06:16:42.396Z,5.91
2023-08-07T06:17:43.993Z,5.91
2023-08-07T06:18:45.812Z,5.91
2023-08-07T06:19:47.561Z,5.91
2023-08-07T06:20:49.264Z,5.90
2023-08-07T06:21:50.872Z,5.89
2023-08-07T06:22:54.322Z,5.87
2023-08-07T06:23:56.103Z,5.88
2023-08-07T06:25:01.011Z,5.88
2023-08-07T06:26:02.687Z,5.88
2023-08-07T06:27:04.168Z,5.88
2023-08-07T06:28:05.723Z,5.88
2023-08-07T06:29:08.705Z,5.89
2023-08-07T06:30:10.406Z,5.89
2023-08-07T06:31:12.198Z,5.89
2023-08-07T06:32:22.684Z,5.91
2023-08-07T06:33:24.271Z,5.92
2023-08-07T06:34:25.812Z,5.93
2023-08-07T06:35:27.345Z,5.94
2023-08-07T06:36:28.909Z,5.96
2023-08-07T06:37:30.401Z,5.96
2023-08-07T06:38:32.156Z,5.98
2023-08-07T06:39:36.612Z,5.98
2023-08-07T06:40:38.258Z,5.99
2023-08-07T06:41:39.916Z,5.98
2023-08-07T06:42:41.581Z,5.98
2023-08-07T06:43:43.130Z,5.99
2023-08-07T06:44:44.722Z,5.99
2023-08-07T06:45:52.475Z,5.99
2023-08-07T06:46:54.308Z,5.99
2023-08-07T06:47:55.902Z,5.99
2023-08-07T06:48:57.502Z,6.00
2023-08-07T06:49:59.046Z,5.99
2023-08-07T06:51:00.601Z,5.99
2023-08-07T06:52:02.154Z,6.00
2023-08-07T06:53:03.705Z,6.00
2023-08-07T06:54:05.350Z,6.00
2023-08-07T06:55:06.782Z,6.00
2023-08-07T06:56:08.474Z,5.99
2023-08-07T06:57:10.277Z,6.00
2023-08-07T06:58:11.824Z,5.99
2023-08-07T06:59:13.247Z,5.99
2023-08-07T07:00:14.972Z,5.99
2023-08-07T07:01:16.976Z,6.00
2023-08-07T07:02:18.717Z,5.99
2023-08-07T07:03:28.970Z,5.99
2023-08-07T07:04:30.496Z,5.99
2023-08-07T07:05:32.061Z,5.99
2023-08-07T07:06:33.569Z,5.99
2023-08-07T07:07:35.102Z,6.00
2023-08-07T07:08:36.640Z,6.00
2023-08-07T07:09:40.928Z,6.01
2023-08-07T07:10:42.456Z,6.00
2023-08-07T07:11:43.997Z,6.01
2023-08-07T07:12:45.536Z,6.01
2023-08-07T07:13:47.052Z,6.01
2023-08-07T07:14:48.643Z,6.01
2023-08-07T07:15:57.850Z,6.02
2023-08-07T07:17:00.729Z,6.03
2023-08-07T07:18:02.386Z,6.04
2023-08-07T07:19:06.903Z,6.04
2023-08-07T07:20:08.507Z,6.05
2023-08-07T07:21:10.289Z,6.07
2023-08-07T07:22:15.241Z,6.07
2023-08-07T07:23:16.774Z,6.10
2023-08-07T07:24:18.371Z,6.11
2023-08-07T07:25:19.918Z,6.11
2023-08-07T07:26:21.503Z,6.11
2023-08-07T07:27:23.613Z,6.12
2023-08-07T07:28:25.230Z,6.13
2023-08-07T07:29:30.492Z,6.13
2023-08-07T07:30:32.203Z,6.15
2023-08-07T07:31:40.047Z,6.17
2023-08-07T07:32:41.750Z,6.17
2023-08-07T07:33:43.727Z,6.18
2023-08-07T07:34:48.692Z,6.18
2023-08-07T07:35:50.365Z,6.19
2023-08-07T07:36:54.684Z,6.21
2023-08-07T07:37:56.419Z,6.19
2023-08-07T07:38:59.748Z,6.18
2023-08-07T07:40:01.512Z,6.18
2023-08-07T07:41:05.529Z,6.18
2023-08-07T07:42:08.408Z,6.20
2023-08-07T07:43:10.023Z,6.21
2023-08-07T07:44:11.622Z,6.21
2023-08-07T07:45:16.431Z,6.22
2023-08-07T07:46:18.292Z,6.23
2023-08-07T07:47:28.956Z,6.22
2023-08-07T07:48:30.801Z,6.23
2023-08-07T07:49:32.572Z,6.25
2023-08-07T07:50:34.339Z,6.24
2023-08-07T07:51:35.896Z,6.25
2023-08-07T07:52:37.594Z,6.25
2023-08-07T07:53:54.845Z,6.25
2023-08-07T07:55:20.249Z,6.28
2023-08-07T07:56:21.780Z,6.28
2023-08-07T07:57:24.910Z,6.28
2023-08-07T07:58:26.388Z,6.29
2023-08-07T07:59:28.006Z,6.28
2023-08-07T08:00:29.541Z,6.27
2023-08-07T08:01:32.112Z,6.29
2023-08-07T08:02:33.925Z,6.30
2023-08-07T08:03:35.762Z,6.29
2023-08-07T08:04:37.463Z,6.31
2023-08-07T08:05:39.435Z,6.30
2023-08-07T08:06:44.103Z,6.29
2023-08-07T08:07:48.911Z,6.31
2023-08-07T08:08:50.506Z,6.29
2023-08-07T08:09:52.141Z,6.29
2023-08-07T08:10:53.882Z,6.29
2023-08-07T08:12:04.507Z,6.31
2023-08-07T08:14:24.588Z,6.29
2023-08-07T08:15:26.409Z,6.29
2023-08-07T08:16:50.323Z,6.31
2023-08-07T08:17:54.938Z,6.29
2023-08-07T08:18:56.759Z,6.32
2023-08-07T08:19:58.692Z,6.33
2023-08-07T08:21:00.569Z,6.33
2023-08-07T08:22:09.327Z,6.34
2023-08-07T08:23:11.074Z,6.34
2023-08-07T08:24:17.291Z,6.35
2023-08-07T08:25:19.058Z,6.35
2023-08-07T08:26:20.608Z,6.36
2023-08-07T08:27:30.607Z,6.38
2023-08-07T08:28:32.481Z,6.38
2023-08-07T08:29:34.171Z,6.38
2023-08-07T08:30:35.720Z,6.39
2023-08-07T08:31:40.699Z,6.39
2023-08-07T08:32:42.401Z,6.40
2023-08-07T08:33:44.336Z,6.39
2023-08-07T08:34:46.286Z,6.41
2023-08-07T08:35:50.305Z,6.42
2023-08-07T08:36:51.862Z,6.43
2023-08-07T08:37:53.654Z,6.44
2023-08-07T08:38:55.314Z,6.45
2023-08-07T08:39:56.895Z,6.45
2023-08-07T08:40:58.670Z,6.46
2023-08-07T08:42:00.265Z,6.46
2023-08-07T08:43:01.858Z,6.47
2023-08-07T08:44:03.359Z,6.47
2023-08-07T08:45:04.914Z,6.50
2023-08-07T08:46:13.244Z,6.51
2023-08-07T08:47:14.899Z,6.51
2023-08-07T08:48:16.547Z,6.53
2023-08-07T08:49:18.254Z,6.54
2023-08-07T08:50:19.828Z,6.55
2023-08-07T08:51:30.086Z,6.55
2023-08-07T08:52:31.596Z,6.55
2023-08-07T08:53:33.182Z,6.55
2023-08-07T08:54:34.823Z,6.58
2023-08-07T08:55:36.397Z,6.58
2023-08-07T08:56:37.940Z,6.58
2023-08-07T08:57:39.460Z,6.60
2023-08-07T08:58:41.303Z,6.60
2023-08-07T08:59:42.886Z,6.61
2023-08-07T09:00:44.592Z,6.61
2023-08-07T09:01:46.247Z,6.62
2023-08-07T09:02:47.909Z,6.62
2023-08-07T09:03:49.510Z,6.63
2023-08-07T09:04:51.023Z,6.62
2023-08-07T09:05:53.005Z,6.64
2023-08-07T09:06:55.376Z,6.63
2023-08-07T09:07:57.094Z,6.63
2023-08-07T09:08:58.618Z,6.64
2023-08-07T09:10:00.234Z,6.62
2023-08-07T09:11:01.963Z,6.63
2023-08-07T09:12:03.699Z,6.62
2023-08-07T09:13:05.388Z,6.60
2023-08-07T09:14:07.298Z,6.60
2023-08-07T09:15:08.853Z,6.60
2023-08-07T09:16:10.695Z,6.59
2023-08-07T09:17:12.456Z,6.60
2023-08-07T09:18:14.079Z,6.58
2023-08-07T09:19:15.829Z,6.57
2023-08-07T09:20:17.616Z,6.57
2023-08-07T09:21:19.148Z,6.58
2023-08-07T09:22:20.631Z,6.55
2023-08-07T09:23:22.392Z,6.55
2023-08-07T09:24:24.080Z,6.55
2023-08-07T09:25:25.615Z,6.54
2023-08-07T09:26:27.219Z,6.54
2023-08-07T09:27:28.749Z,6.52
2023-08-07T09:28:30.231Z,6.51
2023-08-07T09:29:31.817Z,6.51
2023-08-07T09:30:33.453Z,6.51
2023-08-07T09:31:34.959Z,6.51
2023-08-07T09:32:36.512Z,6.52
2023-08-07T09:33:38.141Z,6.52
2023-08-07T09:34:40.025Z,6.54
2023-08-07T09:35:41.554Z,6.53
2023-08-07T09:36:43.150Z,6.54
2023-08-07T09:37:57.113Z,6.54
2023-08-07T09:38:58.842Z,6.54
2023-08-07T09:40:00.439Z,6.56
2023-08-07T09:41:01.972Z,6.56
2023-08-07T09:42:06.493Z,6.55
2023-08-07T09:43:19.476Z,6.57
2023-08-07T09:44:21.035Z,6.57
2023-08-07T09:45:22.602Z,6.59
2023-08-07T09:46:24.194Z,6.59
2023-08-07T09:47:25.801Z,6.58
2023-08-07T09:48:27.517Z,6.59
2023-08-07T09:49:29.085Z,6.59
2023-08-07T09:50:30.620Z,6.58
2023-08-07T09:51:32.178Z,6.59
2023-08-07T09:53:52.226Z,6.58
2023-08-07T09:54:53.832Z,6.60
2023-08-07T09:55:55.642Z,6.60
2023-08-07T09:56:59.104Z,6.60
2023-08-07T09:58:00.985Z,6.61
2023-08-07T09:59:02.533Z,6.60
2023-08-07T10:00:08.423Z,6.59
2023-08-07T10:01:10.296Z,6.59
2023-08-07T10:02:14.819Z,6.61
2023-08-07T10:03:16.586Z,6.62
2023-08-07T10:05:39.420Z,6.61
2023-08-07T10:06:48.744Z,6.63
2023-08-07T10:07:50.416Z,6.64
2023-08-07T10:08:52.973Z,6.65
2023-08-07T10:09:54.469Z,6.65
2023-08-07T10:10:56.038Z,6.66
2023-08-07T10:12:01.391Z,6.67
2023-08-07T10:13:02.975Z,6.68
2023-08-07T10:14:04.627Z,6.70
2023-08-07T10:15:06.146Z,6.71
2023-08-07T10:16:07.889Z,6.73
2023-08-07T10:17:10.864Z,6.73
2023-08-07T10:18:12.506Z,6.75
2023-08-07T10:19:15.180Z,6.75
2023-08-07T10:20:24.428Z,6.77
2023-08-07T10:21:27.234Z,6.78
2023-08-07T10:22:31.702Z,6.80
2023-08-07T10:23:33.467Z,6.80
2023-08-07T10:24:35.131Z,6.82
2023-08-07T10:25:36.803Z,6.83
2023-08-07T10:26:53.571Z,6.84
2023-08-07T10:27:55.397Z,6.85
2023-08-07T10:28:57.065Z,6.87
2023-08-07T10:29:58.752Z,6.87
2023-08-07T10:31:00.565Z,6.87
2023-08-07T10:32:02.220Z,6.88
2023-08-07T10:33:07.036Z,6.91
2023-08-07T10:34:17.762Z,6.92
2023-08-07T10:35:19.283Z,6.95
2023-08-07T10:36:20.847Z,6.96
2023-08-07T10:37:22.391Z,6.97
2023-08-07T10:38:26.463Z,6.99
2023-08-07T10:39:28.221Z,7.01
2023-08-07T10:40:29.862Z,7.04
2023-08-07T10:42:55.477Z,7.07
2023-08-07T10:43:57.320Z,7.09
2023-08-07T10:44:58.874Z,7.12
2023-08-07T10:46:06.336Z,7.14
2023-08-07T10:47:08.043Z,7.16
2023-08-07T10:48:09.710Z,7.18
2023-08-07T10:49:14.330Z,7.20
2023-08-07T10:50:15.832Z,7.21
2023-08-07T10:51:23.499Z,7.21
2023-08-07T10:52:25.353Z,7.25
2023-08-07T10:53:27.017Z,7.26
2023-08-07T10:54:28.545Z,7.27
2023-08-07T10:55:36.148Z,7.30
2023-08-07T10:56:37.803Z,7.32
2023-08-07T10:57:39.335Z,7.34
2023-08-07T10:58:41.078Z,7.34
2023-08-07T10:59:42.912Z,7.38
2023-08-07T11:00:44.687Z,7.38
2023-08-07T11:01:46.323Z,7.39
2023-08-07T11:02:53.654Z,7.40
2023-08-07T11:03:55.482Z,7.40
2023-08-07T11:04:57.205Z,7.40
2023-08-07T11:06:05.079Z,7.42
2023-08-07T11:07:12.826Z,7.44
2023-08-07T11:08:20.003Z,7.44
2023-08-07T11:09:21.638Z,7.44
2023-08-07T11:10:23.311Z,7.47
2023-08-07T11:11:28.225Z,7.48
2023-08-07T11:12:41.714Z,7.48
2023-08-07T11:13:43.419Z,7.50
2023-08-07T11:14:44.993Z,7.50
2023-08-07T11:15:46.559Z,7.51
2023-08-07T11:16:48.332Z,7.51
2023-08-07T11:18:00.199Z,7.51
2023-08-07T11:19:04.247Z,7.51
2023-08-07T11:20:15.231Z,7.52
2023-08-07T11:21:21.333Z,7.52
2023-08-07T11:22:23.093Z,7.53
2023-08-07T11:23:24.642Z,7.54
2023-08-07T11:24:37.116Z,7.56
2023-08-07T11:25:41.953Z,7.57
2023-08-07T11:26:43.899Z,7.56
2023-08-07T11:27:45.432Z,7.56
2023-08-07T11:28:47.278Z,7.56
2023-08-07T11:29:49.013Z,7.56
2023-08-07T11:30:50.635Z,7.58
2023-08-07T11:31:55.081Z,7.57
2023-08-07T11:33:08.672Z,7.59
2023-08-07T11:34:10.200Z,7.59
2023-08-07T11:35:11.865Z,7.60
2023-08-07T11:36:13.783Z,7.60
2023-08-07T11:38:42.819Z,7.59
2023-08-07T11:39:50.561Z,7.58
2023-08-07T11:41:01.034Z,7.58
2023-08-07T11:42:02.905Z,7.59
2023-08-07T11:43:25.361Z,7.59
2023-08-07T11:44:29.906Z,7.60
2023-08-07T11:47:34.929Z,7.59
2023-08-07T11:48:18.425Z,7.59
2023-08-07T11:49:20.327Z,7.60
2023-08-07T11:50:24.076Z,7.60
2023-08-07T11:51:25.849Z,7.62
2023-08-07T11:52:39.120Z,7.61
2023-08-07T11:53:43.468Z,7.63
2023-08-07T11:54:56.605Z,7.64
2023-08-07T11:56:04.253Z,7.64
2023-08-07T11:57:08.419Z,7.65
2023-08-07T11:58:15.769Z,7.66
2023-08-07T11:59:40.036Z,7.69
2023-08-07T12:00:53.604Z,7.70
2023-08-07T12:03:13.793Z,7.72
2023-08-07T12:04:21.235Z,7.71
2023-08-07T12:05:26.078Z,7.72
2023-08-07T12:06:27.893Z,7.74
2023-08-07T12:07:32.356Z,7.73
2023-08-07T12:08:39.351Z,7.74
2023-08-07T12:09:42.952Z,7.74
2023-08-07T12:10:44.728Z,7.74
2023-08-07T12:11:56.830Z,7.75
2023-08-07T12:12:58.485Z,7.76
2023-08-07T12:14:00.123Z,7.77
2023-08-07T12:15:01.846Z,7.77
2023-08-07T12:16:03.476Z,7.77
2023-08-07T12:17:05.324Z,7.77
2023-08-07T12:18:06.861Z,7.78
2023-08-07T12:19:12.987Z,7.78
2023-08-07T12:20:23.818Z,7.79
2023-08-07T12:21:25.973Z,7.78
2023-08-07T12:23:46.434Z,7.78
2023-08-07T12:24:47.975Z,7.76
2023-08-07T12:25:49.589Z,7.75
2023-08-07T12:26:58.897Z,7.75
2023-08-07T12:28:00.851Z,7.74
2023-08-07T12:29:02.372Z,7.74
2023-08-07T12:30:04.139Z,7.73
2023-08-07T12:32:41.840Z,7.70
2023-08-07T12:33:45.173Z,7.67
2023-08-07T12:35:51.286Z,7.66
2023-08-07T12:37:04.280Z,7.67
2023-08-07T12:38:08.814Z,7.68
2023-08-07T12:39:13.311Z,7.70
2023-08-07T12:42:32.900Z,7.70
2023-08-07T12:43:34.449Z,7.70
2023-08-07T12:44:36.277Z,7.72
2023-08-07T12:46:45.005Z,7.74
2023-08-07T12:47:47.172Z,7.77
2023-08-07T12:48:54.965Z,7.79
2023-08-07T12:49:56.817Z,7.80
2023-08-07T12:50:58.876Z,7.83
2023-08-07T12:52:04.993Z,7.85
2023-08-07T12:53:08.629Z,7.88
2023-08-07T12:54:10.135Z,7.90
2023-08-07T12:55:14.894Z,7.91
2023-08-07T12:56:25.562Z,7.95
2023-08-07T12:57:27.792Z,7.95
2023-08-07T12:58:42.317Z,7.97
2023-08-07T12:59:44.724Z,7.99
2023-08-07T13:00:46.427Z,8.01
2023-08-07T13:01:55.500Z,8.04
2023-08-07T13:02:59.134Z,8.06
2023-08-07T13:04:20.567Z,8.08
2023-08-07T13:05:22.315Z,8.10
2023-08-07T13:06:26.831Z,8.10
2023-08-07T13:07:28.682Z,8.12
2023-08-07T13:08:36.398Z,8.14
2023-08-07T13:09:38.139Z,8.16
2023-08-07T13:10:50.067Z,8.15
2023-08-07T13:11:54.488Z,8.15
2023-08-07T13:13:01.825Z,8.18
2023-08-07T13:14:03.329Z,8.19
2023-08-07T13:15:05.155Z,8.22
2023-08-07T13:16:06.831Z,8.26
2023-08-07T13:17:14.863Z,8.28
2023-08-07T13:18:16.593Z,8.33
2023-08-07T13:19:28.681Z,8.35
2023-08-07T13:20:32.250Z,8.40
2023-08-07T13:21:33.760Z,8.43
2023-08-07T13:22:35.260Z,8.46
2023-08-07T13:23:43.272Z,8.50
2023-08-07T13:24:48.314Z,8.54
2023-08-07T13:25:50.337Z,8.56
2023-08-07T13:26:54.167Z,8.58
2023-08-07T13:27:56.024Z,8.60
2023-08-07T13:28:57.777Z,8.61
2023-08-07T13:30:06.786Z,8.63
2023-08-07T13:31:08.706Z,8.65
2023-08-07T13:32:10.497Z,8.66
2023-08-07T13:33:19.697Z,8.67
2023-08-07T13:34:21.294Z,8.70
2023-08-07T13:35:34.744Z,8.71
2023-08-07T13:36:36.451Z,8.72
2023-08-07T13:37:40.151Z,8.73
2023-08-07T13:38:41.686Z,8.75
2023-08-07T13:39:45.326Z,8.76
2023-08-07T13:40:46.959Z,8.78
2023-08-07T13:41:48.714Z,8.80
2023-08-07T13:44:08.566Z,8.85
2023-08-07T13:45:10.133Z,8.88
2023-08-07T13:46:27.077Z,8.90
2023-08-07T13:47:28.954Z,8.92
2023-08-07T13:48:30.480Z,8.95
2023-08-07T13:49:39.277Z,8.96
2023-08-07T13:50:41.194Z,9.00
2023-08-07T13:51:42.744Z,9.01
2023-08-07T13:52:50.096Z,9.03
2023-08-07T13:54:03.008Z,9.05
2023-08-07T13:55:07.504Z,9.07
2023-08-07T13:56:20.560Z,9.09
2023-08-07T13:57:29.680Z,9.10
2023-08-07T13:58:38.430Z,9.13
2023-08-07T14:01:09.857Z,9.16
2023-08-07T14:02:20.738Z,9.17
2023-08-07T14:03:22.564Z,9.18
2023-08-07T14:04:24.306Z,9.19
2023-08-07T14:05:29.079Z,9.20
2023-08-07T14:06:41.040Z,9.22
2023-08-07T14:07:43.063Z,9.24
2023-08-07T14:08:44.710Z,9.25
2023-08-07T14:09:46.337Z,9.28
2023-08-07T14:12:09.228Z,9.29
2023-08-07T14:13:20.182Z,9.30
2023-08-07T14:14:21.846Z,9.31
2023-08-07T14:15:23.457Z,9.32
2023-08-07T14:16:25.238Z,9.33
2023-08-07T14:17:31.748Z,9.33
2023-08-07T14:18:33.364Z,9.31
2023-08-07T14:19:35.166Z,9.31
2023-08-07T14:21:00.418Z,9.31
2023-08-07T14:22:04.137Z,9.31
2023-08-07T14:23:21.408Z,9.34
2023-08-07T14:24:23.843Z,9.32
2023-08-07T14:25:25.718Z,9.31
2023-08-07T14:26:27.329Z,9.29
2023-08-07T14:27:45.868Z,9.28
2023-08-07T14:28:50.160Z,9.26
2023-08-07T14:29:52.430Z,9.25
2023-08-07T14:32:18.260Z,9.24